createdAt,value
2022-10-09T00:01:05.762Z,9.73
2022-10-09T00:03:33.736Z,10.57
2022-10-09T00:06:01.294Z,7.43
2022-10-09T00:08:28.928Z,11.88
2022-10-09T00:10:56.239Z,7.35
2022-10-09T00:13:23.790Z,8.32
2022-10-09T00:15:50.989Z,10.38
2022-10-09T00:18:18.827Z,10.38
2022-10-09T00:20:47.120Z,8.80
2022-10-09T00:23:16.764Z,6.68
2022-10-09T00:25:54.513Z,9.68
2022-10-09T00:28:23.041Z,11.07
2022-10-09T00:30:50.357Z,5.53
2022-10-09T00:33:17.722Z,11.23
2022-10-09T00:35:45.058Z,9.80
2022-10-09T00:38:12.527Z,9.02
2022-10-09T00:40:40.157Z,11.52
2022-10-09T00:43:13.185Z,7.82
2022-10-09T00:45:42.547Z,9.70
2022-10-09T00:48:11.620Z,7.68
2022-10-09T00:50:44.453Z,10.75
2022-10-09T00:53:14.367Z,10.48
2022-10-09T00:55:41.808Z,9.93
2022-10-09T00:58:09.286Z,6.82
2022-10-09T01:00:36.634Z,8.35
2022-10-09T01:03:03.943Z,7.43
2022-10-09T01:05:42.339Z,7.90
2022-10-09T01:08:20.751Z,8.45
2022-10-09T01:10:55.525Z,8.70
2022-10-09T01:13:42.419Z,11.48
2022-10-09T01:16:28.076Z,9.38
2022-10-09T01:18:55.337Z,7.10
2022-10-09T01:21:42.854Z,6.57
2022-10-09T01:24:13.072Z,5.40
2022-10-09T01:26:59.326Z,6.97
2022-10-09T01:29:29.390Z,8.40
2022-10-09T01:31:58.124Z,8.32
2022-10-09T01:34:26.048Z,6.35
2022-10-09T01:36:53.924Z,6.80
2022-10-09T01:39:23.309Z,8.43
2022-10-09T01:41:52.635Z,8.35
2022-10-09T01:44:20.687Z,9.23
2022-10-09T01:46:48.253Z,11.85
2022-10-09T01:49:26.000Z,8.90
2022-10-09T01:52:11.281Z,9.05
2022-10-09T01:54:43.331Z,11.95
2022-10-09T01:57:12.024Z,9.40
2022-10-09T01:59:41.295Z,7.70
2022-10-09T02:02:09.634Z,11.82
2022-10-09T02:04:39.648Z,10.25
2022-10-09T02:07:07.414Z,9.02
2022-10-09T02:09:35.341Z,12.25
2022-10-09T02:12:07.395Z,8.93
2022-10-09T02:14:35.330Z,13.07
2022-10-09T02:17:05.581Z,10.02
2022-10-09T02:19:38.056Z,12.15
2022-10-09T02:22:13.930Z,14.10
2022-10-09T02:24:42.046Z,9.93
2022-10-09T02:27:09.701Z,8.07
2022-10-09T02:29:38.783Z,7.80
2022-10-09T02:32:06.037Z,12.23
2022-10-09T02:34:33.391Z,10.70
2022-10-09T02:37:01.104Z,9.77
2022-10-09T02:39:28.348Z,10.23
2022-10-09T02:41:55.685Z,10.48
2022-10-09T02:44:23.175Z,13.25
2022-10-09T02:46:50.398Z,10.20
2022-10-09T02:49:17.870Z,10.05
2022-10-09T02:51:45.449Z,10.10
2022-10-09T02:54:12.846Z,7.32
2022-10-09T02:56:40.079Z,14.85
2022-10-09T02:59:07.680Z,10.80
2022-10-09T03:01:34.926Z,9.85
2022-10-09T03:04:02.400Z,10.45
2022-10-09T03:06:30.115Z,11.73
2022-10-09T03:08:57.377Z,11.15
2022-10-09T03:11:25.372Z,8.90
2022-10-09T03:13:52.730Z,8.55
2022-10-09T03:16:21.172Z,9.05
2022-10-09T03:18:48.991Z,7.03
2022-10-09T03:21:17.764Z,8.15
2022-10-09T03:23:45.344Z,10.48
2022-10-09T03:26:17.342Z,11.32
2022-10-09T03:28:47.666Z,7.40
2022-10-09T03:31:33.440Z,12.05
2022-10-09T03:34:03.409Z,10.20
2022-10-09T03:36:30.580Z,8.50
2022-10-09T03:38:57.913Z,11.00
2022-10-09T03:41:25.376Z,7.30
2022-10-09T03:43:52.704Z,10.13
2022-10-09T03:46:19.995Z,11.77
2022-10-09T03:48:47.350Z,14.48
2022-10-09T03:51:14.645Z,13.30
2022-10-09T03:53:41.918Z,12.98
2022-10-09T03:56:09.358Z,9.65
2022-10-09T03:58:36.764Z,12.90
2022-10-09T04:01:04.014Z,7.53
2022-10-09T04:03:31.587Z,12.73
2022-10-09T04:05:58.866Z,12.20
2022-10-09T04:08:26.492Z,14.90
2022-10-09T04:10:57.713Z,12.75
2022-10-09T04:13:25.201Z,13.13
2022-10-09T04:15:53.151Z,15.15
2022-10-09T04:18:20.593Z,13.43
2022-10-09T04:20:51.242Z,14.80
2022-10-09T04:23:19.203Z,15.07
2022-10-09T04:25:46.983Z,12.60
2022-10-09T04:28:14.300Z,13.27
2022-10-09T04:30:41.895Z,12.93
2022-10-09T04:33:12.887Z,12.13
2022-10-09T04:35:47.252Z,12.00
2022-10-09T04:38:14.615Z,13.80
2022-10-09T04:40:42.153Z,13.27
2022-10-09T04:43:09.450Z,12.57
2022-10-09T04:45:40.993Z,8.68
2022-10-09T04:48:08.376Z,11.77
2022-10-09T04:50:38.886Z,12.05
2022-10-09T04:53:06.395Z,11.52
2022-10-09T04:55:33.564Z,11.55
2022-10-09T04:58:00.833Z,9.52
2022-10-09T05:00:28.153Z,9.77
2022-10-09T05:02:55.487Z,9.45
2022-10-09T05:05:22.742Z,8.75
2022-10-09T05:07:50.520Z,8.68
2022-10-09T05:10:17.766Z,10.00
2022-10-09T05:12:45.160Z,7.57
2022-10-09T05:15:12.446Z,9.20
2022-10-09T05:17:39.776Z,8.75
2022-10-09T05:20:07.476Z,8.38
2022-10-09T05:22:34.718Z,8.30
2022-10-09T05:25:01.924Z,11.38
2022-10-09T05:27:29.295Z,7.85
2022-10-09T05:29:56.496Z,8.68
2022-10-09T05:32:24.023Z,14.23
2022-10-09T05:34:51.204Z,9.13
2022-10-09T05:37:18.669Z,10.23
2022-10-09T05:39:45.911Z,8.85
2022-10-09T05:42:13.301Z,12.38
2022-10-09T05:44:40.498Z,10.73
2022-10-09T05:47:07.899Z,15.25
2022-10-09T05:49:35.090Z,12.40
2022-10-09T05:52:02.377Z,15.05
2022-10-09T05:54:29.680Z,13.70
2022-10-09T05:56:56.979Z,16.02
2022-10-09T05:59:24.889Z,17.55
2022-10-09T06:01:53.584Z,16.70
2022-10-09T06:04:24.290Z,17.23
2022-10-09T06:06:51.952Z,21.60
2022-10-09T06:09:22.446Z,16.85
2022-10-09T06:11:50.927Z,18.95
2022-10-09T06:14:18.271Z,22.27
2022-10-09T06:16:46.241Z,22.00
2022-10-09T06:19:15.212Z,25.35
2022-10-09T06:21:43.308Z,21.75
2022-10-09T06:24:28.718Z,15.13
2022-10-09T06:26:56.976Z,16.70
2022-10-09T06:29:24.494Z,18.55
2022-10-09T06:31:51.803Z,18.30
2022-10-09T06:34:20.104Z,19.27
2022-10-09T06:36:50.552Z,18.98
2022-10-09T06:39:17.953Z,17.60
2022-10-09T06:41:45.162Z,21.95
2022-10-09T06:44:32.691Z,22.90
2022-10-09T06:47:00.123Z,20.40
2022-10-09T06:49:27.564Z,25.05
2022-10-09T06:51:55.033Z,16.35
2022-10-09T06:54:22.657Z,16.75
2022-10-09T06:56:49.972Z,13.75
2022-10-09T06:59:17.343Z,13.02
2022-10-09T07:01:44.765Z,12.85
2022-10-09T07:04:13.606Z,15.95
2022-10-09T07:06:42.395Z,20.95
2022-10-09T07:09:11.134Z,14.35
2022-10-09T07:11:39.629Z,17.48
2022-10-09T07:14:07.892Z,9.88
2022-10-09T07:16:36.469Z,10.68
2022-10-09T07:19:09.464Z,9.98
2022-10-09T07:21:36.851Z,11.23
2022-10-09T07:24:05.237Z,10.70
2022-10-09T07:26:33.374Z,11.35
2022-10-09T07:29:00.900Z,13.02
2022-10-09T07:31:28.542Z,13.93
2022-10-09T07:33:57.211Z,8.25
2022-10-09T07:36:24.880Z,9.45
2022-10-09T07:38:53.385Z,8.50
2022-10-09T07:41:21.298Z,9.55
2022-10-09T07:43:48.578Z,12.82
2022-10-09T07:46:17.264Z,15.73
2022-10-09T07:48:45.043Z,14.18
2022-10-09T07:51:20.019Z,13.48
2022-10-09T07:53:47.428Z,12.98
2022-10-09T07:56:21.688Z,12.80
2022-10-09T07:58:50.013Z,15.18
2022-10-09T08:01:20.146Z,13.57
2022-10-09T08:03:48.271Z,13.13
2022-10-09T08:06:15.886Z,16.83
2022-10-09T08:08:43.256Z,9.95
2022-10-09T08:11:16.073Z,16.60
2022-10-09T08:13:44.674Z,16.65
2022-10-09T08:16:12.035Z,13.00
2022-10-09T08:18:39.300Z,8.98
2022-10-09T08:21:09.302Z,12.18
2022-10-09T08:23:36.446Z,12.82
2022-10-09T08:26:04.275Z,10.88
2022-10-09T08:28:31.659Z,13.98
2022-10-09T08:30:58.699Z,9.70
2022-10-09T08:33:26.138Z,14.25
2022-10-09T08:35:54.360Z,12.90
2022-10-09T08:38:45.543Z,10.77
2022-10-09T08:41:09.533Z,14.50
2022-10-09T08:43:39.963Z,10.90
2022-10-09T08:46:20.781Z,11.43
2022-10-09T08:48:50.307Z,9.77
2022-10-09T08:51:31.015Z,9.20
2022-10-09T08:54:26.476Z,11.85
2022-10-09T08:56:54.177Z,8.10
2022-10-09T08:59:20.979Z,12.85
2022-10-09T09:02:22.988Z,10.52
2022-10-09T09:05:23.147Z,7.97
2022-10-09T09:07:55.881Z,10.32
2022-10-09T09:10:42.681Z,10.85
2022-10-09T09:13:15.467Z,11.98
2022-10-09T09:15:49.768Z,9.82
2022-10-09T09:18:45.273Z,7.93
2022-10-09T09:23:48.106Z,6.43
2022-10-09T09:26:20.645Z,7.72
2022-10-09T09:28:52.442Z,8.13
2022-10-09T09:31:25.019Z,10.13
2022-10-09T09:34:17.216Z,10.15
2022-10-09T09:36:49.579Z,7.63
2022-10-09T09:42:24.068Z,10.52
2022-10-09T09:45:02.022Z,11.30
2022-10-09T09:47:43.244Z,7.38
2022-10-09T09:50:28.479Z,9.18
2022-10-09T09:53:00.657Z,8.77
2022-10-09T09:55:30.769Z,8.32
2022-10-09T09:58:04.342Z,10.18
2022-10-09T10:00:31.737Z,10.43
2022-10-09T10:03:14.134Z,6.78
2022-10-09T10:05:43.663Z,9.30
2022-10-09T10:08:31.646Z,12.75
2022-10-09T10:11:18.177Z,9.55
2022-10-09T10:13:49.593Z,9.35
2022-10-09T10:16:24.895Z,8.50
2022-10-09T10:18:53.088Z,10.35
2022-10-09T10:21:21.631Z,10.32
2022-10-09T10:24:05.373Z,12.93
2022-10-09T10:26:43.780Z,8.57
2022-10-09T10:29:20.600Z,7.85
2022-10-09T10:31:50.276Z,5.85
2022-10-09T10:34:32.807Z,6.93
2022-10-09T10:37:05.997Z,9.27
2022-10-09T10:40:14.918Z,7.88
2022-10-09T10:42:52.456Z,11.82
2022-10-09T10:45:44.948Z,9.95
2022-10-09T10:48:18.298Z,8.80
2022-10-09T10:50:58.609Z,9.60
2022-10-09T10:53:37.155Z,11.07
2022-10-09T10:56:12.916Z,9.02
2022-10-09T10:58:51.089Z,10.45
2022-10-09T11:01:52.968Z,9.90
2022-10-09T11:04:52.491Z,11.07
2022-10-09T11:07:49.192Z,8.25
2022-10-09T11:10:24.096Z,9.18
2022-10-09T11:12:57.535Z,6.43
2022-10-09T11:15:39.252Z,8.90
2022-10-09T11:18:18.188Z,8.88
2022-10-09T11:21:05.315Z,8.63
2022-10-09T11:24:11.281Z,6.10
2022-10-09T11:26:59.675Z,6.88
2022-10-09T11:29:37.296Z,6.82
2022-10-09T11:32:28.755Z,10.32
2022-10-09T11:35:03.751Z,9.25
2022-10-09T11:37:39.223Z,9.40
2022-10-09T11:40:23.109Z,5.55
2022-10-09T11:43:18.933Z,5.40
2022-10-09T11:46:33.052Z,5.40
2022-10-09T11:49:19.986Z,7.07
2022-10-09T11:51:55.068Z,4.10
2022-10-09T11:54:23.424Z,5.10
2022-10-09T11:57:05.198Z,5.72
2022-10-09T11:59:36.466Z,5.07
2022-10-09T12:02:25.924Z,4.68
2022-10-09T12:04:55.198Z,13.77
2022-10-09T12:07:41.693Z,6.82
2022-10-09T12:10:20.305Z,3.38
2022-10-09T12:12:58.780Z,5.40
2022-10-09T12:15:47.326Z,5.85
2022-10-09T12:18:22.294Z,6.10
2022-10-09T12:20:50.035Z,6.50
2022-10-09T12:23:26.616Z,6.40
2022-10-09T12:25:56.439Z,4.30
2022-10-09T12:28:36.656Z,7.00
2022-10-09T12:31:07.850Z,4.22
2022-10-09T12:33:46.688Z,4.45
2022-10-09T12:36:26.583Z,7.88
2022-10-09T12:38:54.345Z,3.50
2022-10-09T12:41:29.110Z,4.78
2022-10-09T12:43:57.620Z,7.97
2022-10-09T12:46:34.234Z,7.50
2022-10-09T12:49:04.790Z,4.93
2022-10-09T12:51:34.156Z,9.10
2022-10-09T12:54:08.886Z,5.80
2022-10-09T12:56:38.493Z,4.55
2022-10-09T12:59:07.242Z,3.90
2022-10-09T13:01:35.420Z,7.20
2022-10-09T13:04:04.881Z,6.18
2022-10-09T13:06:45.626Z,5.60
2022-10-09T13:09:22.988Z,8.23
2022-10-09T13:12:05.872Z,6.47
2022-10-09T13:14:53.724Z,11.02
2022-10-09T13:17:29.653Z,8.30
2022-10-09T13:19:59.775Z,8.13
2022-10-09T13:22:33.667Z,6.35
2022-10-09T13:25:04.140Z,7.65
2022-10-09T13:27:34.351Z,7.00
2022-10-09T13:30:01.641Z,5.95
2022-10-09T13:32:28.488Z,6.80
2022-10-09T13:34:55.984Z,7.57
2022-10-09T13:37:24.637Z,7.28
2022-10-09T13:39:56.360Z,4.22
2022-10-09T13:42:29.871Z,6.35
2022-10-09T13:44:56.956Z,7.43
2022-10-09T13:47:24.795Z,5.88
2022-10-09T13:49:51.856Z,4.40
2022-10-09T13:52:18.751Z,4.13
2022-10-09T13:54:45.795Z,4.50
2022-10-09T13:57:12.605Z,8.13
2022-10-09T13:59:40.324Z,6.65
2022-10-09T14:02:07.715Z,4.13
2022-10-09T14:04:34.594Z,6.88
2022-10-09T14:07:01.446Z,7.13
2022-10-09T14:09:28.517Z,6.03
2022-10-09T14:11:55.393Z,6.80
2022-10-09T14:14:22.588Z,8.43
2022-10-09T14:16:50.912Z,5.03
2022-10-09T14:19:18.088Z,7.22
2022-10-09T14:21:46.778Z,5.00
2022-10-09T14:24:14.550Z,8.27
2022-10-09T14:26:41.373Z,6.50
2022-10-09T14:29:09.776Z,7.55
2022-10-09T14:31:36.825Z,5.25
2022-10-09T14:34:03.786Z,5.43
2022-10-09T14:36:31.636Z,6.00
2022-10-09T14:39:01.554Z,7.80
2022-10-09T14:41:30.625Z,9.55
2022-10-09T14:44:00.214Z,7.10
2022-10-09T14:46:28.827Z,4.40
2022-10-09T14:48:57.189Z,7.25
2022-10-09T14:51:26.595Z,7.03
2022-10-09T14:53:58.233Z,6.68
2022-10-09T14:56:26.617Z,6.22
2022-10-09T14:58:53.527Z,7.15
2022-10-09T15:01:22.430Z,5.22
2022-10-09T15:03:49.389Z,6.07
2022-10-09T15:06:18.356Z,7.03
2022-10-09T15:08:45.336Z,7.03
2022-10-09T15:11:12.726Z,6.63
2022-10-09T15:13:40.072Z,7.43
2022-10-09T15:16:14.048Z,5.32
2022-10-09T15:18:41.843Z,7.88
2022-10-09T15:21:36.081Z,7.07
2022-10-09T15:24:04.022Z,12.48
2022-10-09T15:26:33.228Z,6.25
2022-10-09T15:29:03.366Z,3.53
2022-10-09T15:31:38.825Z,5.35
2022-10-09T15:34:07.876Z,4.68
2022-10-09T15:36:37.404Z,4.70
2022-10-09T15:39:07.743Z,8.45
2022-10-09T15:41:37.906Z,5.53
2022-10-09T15:44:24.062Z,5.00
2022-10-09T15:46:50.872Z,5.03
2022-10-09T15:49:18.030Z,3.92
2022-10-09T15:51:45.057Z,3.55
2022-10-09T15:54:12.913Z,6.03
2022-10-09T15:56:41.348Z,3.42
2022-10-09T15:59:12.643Z,6.97
2022-10-09T16:01:39.740Z,5.57
2022-10-09T16:04:06.649Z,4.28
2022-10-09T16:06:33.538Z,6.28
2022-10-09T16:09:01.085Z,5.85
2022-10-09T16:11:28.191Z,3.53
2022-10-09T16:13:55.786Z,5.25
2022-10-09T16:16:25.185Z,4.38
2022-10-09T16:18:52.432Z,7.45
2022-10-09T16:21:26.317Z,5.00
2022-10-09T16:23:58.433Z,6.28
2022-10-09T16:26:27.833Z,4.45
2022-10-09T16:28:54.976Z,4.68
2022-10-09T16:31:24.483Z,6.18
2022-10-09T16:33:52.140Z,4.40
2022-10-09T16:36:19.353Z,3.38
2022-10-09T16:38:46.352Z,3.95
2022-10-09T16:41:18.647Z,6.95
2022-10-09T16:43:47.575Z,6.85
2022-10-09T16:46:24.985Z,6.13
2022-10-09T16:48:53.504Z,5.53
2022-10-09T16:51:26.559Z,7.07
2022-10-09T16:53:55.653Z,5.15
2022-10-09T16:56:24.958Z,6.32
2022-10-09T16:58:55.916Z,5.47
2022-10-09T17:01:23.731Z,5.68
2022-10-09T17:03:50.653Z,5.90
2022-10-09T17:06:23.804Z,5.20
2022-10-09T17:08:56.153Z,4.38
2022-10-09T17:11:23.960Z,4.55
2022-10-09T17:13:52.149Z,3.13
2022-10-09T17:16:21.324Z,2.42
2022-10-09T17:18:48.642Z,4.43
2022-10-09T17:21:17.854Z,5.40
2022-10-09T17:23:45.712Z,4.78
2022-10-09T17:26:16.167Z,7.93
2022-10-09T17:28:44.044Z,6.65
2022-10-09T17:31:14.301Z,3.10
2022-10-09T17:33:43.017Z,6.30
2022-10-09T17:36:10.612Z,5.30
2022-10-09T17:38:37.939Z,6.75
2022-10-09T17:41:09.731Z,4.07
2022-10-09T17:43:37.635Z,4.25
2022-10-09T17:46:04.909Z,7.93
2022-10-09T17:48:34.066Z,9.02
2022-10-09T17:51:03.714Z,3.67
2022-10-09T17:53:31.236Z,7.22
2022-10-09T17:56:03.529Z,3.90
2022-10-09T17:58:33.479Z,5.03
2022-10-09T18:01:05.355Z,6.03
2022-10-09T18:03:32.369Z,7.53
2022-10-09T18:06:02.358Z,5.68
2022-10-09T18:08:31.035Z,4.03
2022-10-09T18:11:00.106Z,6.80
2022-10-09T18:13:26.963Z,4.55
2022-10-09T18:15:54.081Z,7.90
2022-10-09T18:18:21.269Z,6.50
2022-10-09T18:20:48.198Z,5.90
2022-10-09T18:23:18.405Z,7.28
2022-10-09T18:25:47.509Z,4.85
2022-10-09T18:28:15.288Z,4.75
2022-10-09T18:30:48.397Z,4.97
2022-10-09T18:33:15.315Z,4.88
2022-10-09T18:35:42.187Z,5.70
2022-10-09T18:38:10.968Z,7.10
2022-10-09T18:40:45.524Z,4.03
2022-10-09T18:43:12.846Z,3.70
2022-10-09T18:45:46.015Z,4.78
2022-10-09T18:48:13.943Z,4.50
2022-10-09T18:50:41.013Z,5.50
2022-10-09T18:53:08.334Z,5.90
2022-10-09T18:55:35.530Z,5.38
2022-10-09T18:58:03.215Z,6.20
2022-10-09T19:00:30.877Z,5.40
2022-10-09T19:02:57.832Z,4.75
2022-10-09T19:05:24.867Z,4.80
2022-10-09T19:07:52.207Z,5.35
2022-10-09T19:10:19.311Z,5.47
2022-10-09T19:12:46.628Z,6.85
2022-10-09T19:15:14.722Z,4.97
2022-10-09T19:17:42.090Z,5.78
2022-10-09T19:20:09.193Z,6.85
2022-10-09T19:22:36.271Z,11.50
2022-10-09T19:25:04.424Z,6.05
2022-10-09T19:27:32.570Z,8.38
2022-10-09T19:29:59.625Z,7.47
2022-10-09T19:32:26.723Z,8.07
2022-10-09T19:34:53.528Z,5.38
2022-10-09T19:37:22.086Z,7.63
2022-10-09T19:39:51.003Z,7.90
2022-10-09T19:42:18.978Z,7.50
2022-10-09T19:44:47.246Z,8.57
2022-10-09T19:47:15.127Z,8.38
2022-10-09T19:49:42.136Z,6.57
2022-10-09T19:52:09.353Z,7.93
2022-10-09T19:54:37.831Z,7.40
2022-10-09T19:57:04.652Z,5.30
2022-10-09T19:59:31.818Z,8.75
2022-10-09T20:01:58.692Z,6.55
2022-10-09T20:04:25.599Z,4.80
2022-10-09T20:06:52.431Z,6.97
2022-10-09T20:09:20.807Z,6.32
2022-10-09T20:11:48.349Z,4.53
2022-10-09T20:14:15.588Z,8.40
2022-10-09T20:16:42.499Z,6.45
2022-10-09T20:19:09.526Z,7.57
2022-10-09T20:21:36.414Z,5.53
2022-10-09T20:24:03.310Z,6.30
2022-10-09T20:26:33.102Z,7.07
2022-10-09T20:29:00.308Z,5.75
2022-10-09T20:31:28.120Z,6.00
2022-10-09T20:33:55.871Z,5.70
2022-10-09T20:36:37.476Z,5.75
2022-10-09T20:39:07.372Z,8.15
2022-10-09T20:41:35.230Z,6.30
2022-10-09T20:44:03.325Z,12.00
2022-10-09T20:46:32.709Z,9.02
2022-10-09T20:49:01.635Z,7.03
2022-10-09T20:51:28.620Z,8.65
2022-10-09T20:53:57.713Z,12.50
2022-10-09T20:56:26.832Z,12.02
2022-10-09T20:58:54.319Z,8.48
2022-10-09T21:01:21.689Z,7.93
2022-10-09T21:03:48.783Z,9.82
2022-10-09T21:06:18.233Z,8.95
2022-10-09T21:08:45.264Z,8.45
2022-10-09T21:11:16.711Z,8.60
2022-10-09T21:13:45.181Z,9.88
2022-10-09T21:16:17.164Z,10.02
2022-10-09T21:18:44.234Z,8.02
2022-10-09T21:21:16.705Z,7.22
2022-10-09T21:23:45.011Z,7.68
2022-10-09T21:26:13.755Z,9.52
2022-10-09T21:28:41.355Z,8.70
2022-10-09T21:31:28.511Z,9.25
2022-10-09T21:33:56.577Z,8.50
2022-10-09T21:37:20.422Z,11.77
2022-10-09T21:39:49.038Z,8.20
2022-10-09T21:42:15.911Z,10.38
2022-10-09T21:44:42.720Z,9.85
2022-10-09T21:47:18.697Z,9.70
2022-10-09T21:49:45.590Z,8.15
2022-10-09T21:52:12.547Z,7.38
2022-10-09T21:54:39.469Z,9.70
2022-10-09T21:57:06.501Z,7.78
2022-10-09T21:59:33.398Z,8.88
2022-10-09T22:02:00.320Z,11.00
2022-10-09T22:04:27.383Z,10.15
2022-10-09T22:06:54.183Z,11.38
2022-10-09T22:09:21.374Z,11.75
2022-10-09T22:11:48.257Z,10.10
2022-10-09T22:14:15.475Z,15.57
2022-10-09T22:16:42.479Z,8.10
2022-10-09T22:19:09.444Z,11.80
2022-10-09T22:21:36.497Z,10.68
2022-10-09T22:24:03.656Z,11.27
2022-10-09T22:26:30.484Z,11.40
2022-10-09T22:28:57.547Z,14.60
2022-10-09T22:31:26.499Z,13.20
2022-10-09T22:33:58.535Z,8.98
2022-10-09T22:36:27.838Z,10.02
2022-10-09T22:38:56.497Z,8.38
2022-10-09T22:41:24.724Z,9.82
2022-10-09T22:43:54.302Z,7.40
2022-10-09T22:46:33.714Z,9.52
2022-10-09T22:49:01.315Z,10.43
2022-10-09T22:51:29.742Z,10.60
2022-10-09T22:53:57.845Z,10.73
2022-10-09T22:56:30.270Z,7.47
2022-10-09T22:58:57.525Z,9.13
2022-10-09T23:01:40.099Z,10.75
2022-10-09T23:04:13.620Z,9.18
2022-10-09T23:06:41.893Z,10.35
2022-10-09T23:09:10.821Z,10.75
2022-10-09T23:11:37.707Z,7.95
2022-10-09T23:14:05.463Z,9.32
2022-10-09T23:16:32.763Z,10.38
2022-10-09T23:19:06.067Z,11.25
2022-10-09T23:21:35.415Z,8.38
2022-10-09T23:24:02.437Z,8.73
2022-10-09T23:26:31.409Z,8.50
2022-10-09T23:29:06.508Z,10.35
2022-10-09T23:31:33.701Z,10.38
2022-10-09T23:34:01.079Z,10.98
2022-10-09T23:36:29.666Z,7.75
2022-10-09T23:38:57.569Z,7.95
2022-10-09T23:41:26.774Z,9.60
2022-10-09T23:43:54.192Z,9.93
2022-10-09T23:46:24.074Z,7.10
2022-10-09T23:48:51.861Z,7.43
2022-10-09T23:51:20.825Z,10.15
2022-10-09T23:53:47.922Z,8.30
2022-10-09T23:56:25.832Z,10.48
2022-10-09T23:58:53.642Z,11.65
